ADDS METAR Data INFO
IDs: Format: Raw Decoded Include TAF

Data at: 1925 UTC 23 Apr 2018

KIRK 231855Z AUTO 05014G23KT 10SM CLR 22/03 A3006 RMK AO2 SLP181 T02170033
KIRK 231755Z AUTO 04014KT 10SM CLR 21/03 A3008 RMK AO2 SLP186 T02110028 10211 20094 57012
KIRK 231655Z AUTO 05016KT 10SM CLR 19/01 A3009 RMK AO2 SLP191 T01890011
KIRK 231555Z AUTO 02015KT 10SM CLR 18/02 A3010 RMK AO2 SLP194 T01830017
KIRK 231455Z AUTO 01009KT 10SM CLR 14/02 A3012 RMK AO2 SLP201 T01440022 58005
KIRK 231355Z AUTO 03010KT 10SM CLR 12/01 A3013 RMK AO2 SLP205 T01170011
KIRK 231255Z AUTO 03011KT 10SM BKN120 10/01 A3014 RMK AO2 SLP209 T01000006
KIRK 231155Z AUTO 02009KT 10SM BKN120 10/01 A3013 RMK AO2 SLP206 T01000006 10128 20100 53007
KIRK 231055Z AUTO 03008KT 10SM OVC120 10/01 A3012 RMK AO2 SLP203 T01000006
KIRK 230955Z AUTO 04008KT 10SM CLR 11/01 A3011 RMK AO2 SLP200 T01060006
KIRK 230855Z AUTO 04009KT 10SM SCT110 11/01 A3011 RMK AO2 SLP198 T01110006 56004
KIRK 230755Z AUTO 04009KT 10SM FEW080 11/01 A3011 RMK AO2 SLP197 T01110006
KIRK 230655Z AUTO 05008KT 10SM BKN075 BKN090 12/00 A3012 RMK AO2 SLP201 T01220000
KIRK 230555Z AUTO 04009KT 10SM OVC085 13/M01 A3012 RMK AO2 SLP203 T01281006 10161 20128 402110089 55003
KIRK 230455Z AUTO 05009KT 10SM BKN080 BKN090 13/M02 A3012 RMK AO2 SLP202 T01331017
KIRK 230355Z AUTO 05009KT 10SM OVC080 13/M02 A3013 RMK AO2 SLP205 T01331022
KIRK 230255Z AUTO 04010KT 10SM SCT120 13/M02 A3013 RMK AO2 SLP208 T01331022 51004
KIRK 230155Z AUTO 04010KT 10SM OVC110 14/M01 A3013 RMK AO2 SLP206 T01391011
KIRK 230055Z AUTO 05008KT 10SM OVC110 14/02 A3013 RMK AO2 SLP206 T01440017
KIRK 222355Z AUTO 07008KT 10SM OVC090 16/03 A3012 RMK AO2 SLP203 T01610033 10211 20161 53004
KIRK 222255Z AUTO 08010KT 10SM OVC075 17/04 A3012 RMK AO2 SLP202 T01720044
KIRK 222155Z AUTO 08010KT 10SM OVC060 18/05 A3011 RMK AO2 SLP197 T01780050
KIRK 222055Z AUTO 09013KT 10SM BKN065 OVC080 18/05 A3011 RMK AO2 PK WND 08026/2001 SLP199 T01830050 56016
KIRK 221955Z AUTO 09015G22KT 10SM CLR 21/06 A3012 RMK AO2 SLP200 T02060056
KIRK 221855Z AUTO 05016G21KT 10SM CLR 20/05 A3013 RMK AO2 SLP206 T02000050
KIRK 221755Z AUTO 07009KT 10SM FEW120 18/05 A3016 RMK AO2 SLP214 T01830050 10183 20089 58013
KIRK 221655Z AUTO 06011KT 10SM SCT110 16/04 A3018 RMK AO2 SLP222 T01560039
KIRK 221555Z AUTO 09011KT 10SM BKN120 14/02 A3020 RMK AO2 SLP228 T01440022
KIRK 221455Z AUTO 07009KT 10SM OVC100 11/01 A3020 RMK AO2 SLP231 T01060006 50003
KIRK 221355Z AUTO 07010KT 10SM OVC100 10/00 A3020 RMK AO2 SLP232 T01000000
KIRK 221255Z AUTO 07010KT 10SM OVC100 09/00 A3020 RMK AO2 SLP233 T00940000
KIRK 221155Z AUTO 06012KT 10SM OVC100 09/00 A3019 RMK AO2 SLP228 T00890000 10111 20089 53002
KIRK 221055Z AUTO 06011KT 10SM OVC100 09/00 A3017 RMK AO2 SLP222 T00940000
KIRK 220955Z AUTO 06010KT 10SM OVC110 09/01 A3018 RMK AO2 SLP222 T00940006
KIRK 220855Z AUTO 07010KT 10SM OVC110 10/01 A3018 RMK AO2 SLP225 T01000006 58006
KIRK 220755Z AUTO 07010G18KT 10SM OVC095 11/00 A3019 RMK AO2 SLP227 T01060000